Time;durP1;ratioP1;P1;durP2;ratioP2;P2;SDS_P1;SDS_P2;PMS_P1;PMS_P2;Temp;Humidity;BMP_temperature;BMP_pressure;BME280_temperature;BME280_humidity;BME280_pressure;Samples;Min_cycle;Max_cycle;Signal;HPM_P1;HPM_P2
2022/01/04 00:02:43;;;;;;;23.85;16.33;;;8.00;99.90;;;;;;12480961;28;20099;-37
2022/01/04 00:08:47;;;;;;;23.88;15.35;;;8.00;99.90;;;;;;12478330;28;20069;-37
2022/01/04 00:14:49;;;;;;;24.30;16.38;;;8.00;99.90;;;;;;12482142;28;20053;-37
2022/01/04 00:20:53;;;;;;;23.17;17.02;;;7.90;99.90;;;;;;12466313;28;20482;-37
2022/01/04 00:26:57;;;;;;;;;;;8.00;99.90;;;;;;12483042;28;20430;-38
2022/01/04 00:33:00;;;;;;;26.67;16.63;;;8.00;99.90;;;;;;12483753;28;20378;-37
2022/01/04 00:39:04;;;;;;;27.08;17.85;;;8.00;99.90;;;;;;12479938;28;20049;-39
2022/01/04 00:45:09;;;;;;;26.83;15.85;;;8.00;99.90;;;;;;12478054;28;20099;-37
2022/01/04 00:51:14;;;;;;;24.65;15.98;;;7.90;99.90;;;;;;12482827;28;20132;-38
2022/01/04 00:57:18;;;;;;;25.08;16.30;;;8.00;99.90;;;;;;12484512;28;20069;-38
2022/01/04 01:03:24;;;;;;;26.55;16.75;;;8.00;99.90;;;;;;12485481;28;20466;-36
2022/01/04 01:09:48;;;;;;;30.05;17.05;;;8.00;99.90;;;;;;12483656;28;20049;-36
2022/01/04 01:15:58;;;;;;;25.80;17.65;;;8.00;99.90;;;;;;12481660;28;20057;-37
2022/01/04 01:22:06;;;;;;;26.77;17.10;;;8.00;99.90;;;;;;12474905;28;20179;-37
2022/01/04 01:28:14;;;;;;;29.00;17.08;;;8.00;99.90;;;;;;12480015;28;20125;-38
2022/01/04 01:34:20;;;;;;;29.17;18.42;;;8.00;99.90;;;;;;12479175;28;20038;-39
2022/01/04 01:40:30;;;;;;;26.23;18.08;;;8.00;99.90;;;;;;12477935;28;20133;-37
2022/01/04 01:46:36;;;;;;;26.63;18.77;;;8.00;99.90;;;;;;12482441;28;20057;-39
2022/01/04 01:52:42;;;;;;;32.92;18.95;;;7.90;99.90;;;;;;12474030;28;20510;-37
2022/01/04 01:58:48;;;;;;;29.13;19.48;;;7.90;99.90;;;;;;12492501;28;20038;-39
2022/01/04 02:04:57;;;;;;;25.80;17.30;;;7.90;99.90;;;;;;12484036;28;20102;-37
2022/01/04 02:11:05;;;;;;;22.92;15.82;;;7.90;99.90;;;;;;12487043;28;20057;-40
2022/01/04 02:17:13;;;;;;;25.15;14.18;;;7.90;99.90;;;;;;12487904;28;20116;-39
2022/01/04 02:23:24;;;;;;;21.25;14.02;;;7.80;99.90;;;;;;12467353;28;20143;-36
2022/01/04 02:29:32;;;;;;;18.83;12.02;;;7.80;99.90;;;;;;12476120;28;20418;-40
2022/01/04 02:35:41;;;;;;;15.50;11.48;;;7.80;99.90;;;;;;12480535;28;20064;-39
2022/01/04 02:41:45;;;;;;;16.48;11.70;;;7.90;99.90;;;;;;12474820;28;20517;-39
2022/01/04 02:47:48;;;;;;;14.05;11.18;;;7.90;99.90;;;;;;12485900;28;20511;-38
2022/01/04 02:53:54;;;;;;;15.13;11.48;;;7.90;99.90;;;;;;12476332;28;20102;-38
2022/01/04 03:00:05;;;;;;;14.95;12.40;;;7.90;99.90;;;;;;12483728;28;20048;-39
2022/01/04 03:06:17;;;;;;;15.07;11.65;;;7.90;99.90;;;;;;12488581;28;20060;-38
2022/01/04 03:12:25;;;;;;;15.48;11.90;;;7.90;99.90;;;;;;12489742;28;20505;-39
2022/01/04 03:18:31;;;;;;;18.30;12.57;;;7.90;99.90;;;;;;12486205;28;20144;-37
2022/01/04 03:24:37;;;;;;;19.08;13.70;;;7.80;99.90;;;;;;12471262;28;20046;-39
2022/01/04 03:30:56;;;;;;;16.98;12.43;;;7.80;99.90;;;;;;12491104;28;20099;-37
2022/01/04 03:37:06;;;;;;;17.33;11.70;;;7.80;99.90;;;;;;12487895;28;20049;-36
2022/01/04 03:43:14;;;;;;;13.55;10.57;;;7.80;99.90;;;;;;12476716;28;20054;-39
2022/01/04 03:49:21;;;;;;;12.70;10.35;;;7.70;99.90;;;;;;12486296;28;20513;-39
2022/01/04 03:55:28;;;;;;;15.23;10.73;;;7.70;99.90;;;;;;12490737;28;20095;-40
2022/01/04 04:01:33;;;;;;;12.15;9.48;;;7.60;99.90;;;;;;12485645;28;20057;-39
2022/01/04 04:07:38;;;;;;;14.82;9.98;;;7.50;99.90;;;;;;12483378;28;20053;-39
2022/01/04 04:13:43;;;;;;;16.00;10.90;;;7.50;99.90;;;;;;12466956;28;20041;-39
2022/01/04 04:19:47;;;;;;;18.63;11.18;;;7.50;99.90;;;;;;12486912;28;20045;-39
2022/01/04 04:25:51;;;;;;;18.02;12.07;;;7.50;99.90;;;;;;12483065;28;20044;-39
2022/01/04 04:31:54;;;;;;;;;;;7.50;99.90;;;;;;12485534;28;20046;-39
2022/01/04 04:38:00;;;;;;;21.90;13.20;;;7.50;99.90;;;;;;12468560;28;19928;-39
2022/01/04 04:44:03;;;;;;;;;;;7.50;99.90;;;;;;12456611;28;20139;-39
2022/01/04 04:50:08;;;;;;;24.20;14.38;;;7.50;99.90;;;;;;12482117;28;19937;-39
2022/01/04 04:56:12;;;;;;;20.17;14.23;;;7.50;99.90;;;;;;12479553;28;20482;-37
2022/01/04 05:02:15;;;;;;;23.75;15.77;;;7.40;99.90;;;;;;12481257;28;20060;-39
2022/01/04 05:08:19;;;;;;;25.08;16.63;;;7.40;99.90;;;;;;12481937;28;20045;-37
2022/01/04 05:14:22;;;;;;;27.45;17.13;;;7.40;99.90;;;;;;12479944;28;20132;-37
2022/01/04 05:20:24;;;;;;;22.75;15.93;;;7.40;99.90;;;;;;12477373;28;20049;-40
2022/01/04 05:26:28;;;;;;;29.70;16.02;;;7.40;99.90;;;;;;12477465;28;20041;-39
2022/01/04 05:32:32;;;;;;;25.85;16.65;;;7.30;99.90;;;;;;12461660;28;20045;-41
2022/01/04 05:38:38;;;;;;;24.52;16.30;;;7.40;99.90;;;;;;12477269;28;20494;-37
2022/01/04 05:44:43;;;;;;;25.38;15.70;;;7.30;99.90;;;;;;12473121;28;20608;-37
2022/01/04 05:50:48;;;;;;;21.83;15.68;;;7.30;99.90;;;;;;12472144;28;20088;-39
2022/01/04 05:56:53;;;;;;;22.90;15.83;;;7.30;99.90;;;;;;12477132;28;20068;-39
2022/01/04 06:03:00;;;;;;;24.90;16.88;;;7.30;99.90;;;;;;12477424;28;20371;-38
2022/01/04 06:09:08;;;;;;;28.80;16.90;;;7.30;99.90;;;;;;12478507;28;20124;-37
2022/01/04 06:15:15;;;;;;;24.85;16.48;;;7.30;99.90;;;;;;12459650;28;20246;-37
2022/01/04 06:21:18;;;;;;;29.17;17.55;;;7.30;99.90;;;;;;12471096;28;20053;-39
2022/01/04 06:27:22;;;;;;;25.08;17.00;;;7.20;99.90;;;;;;12471953;28;20061;-39
2022/01/04 06:33:24;;;;;;;27.38;16.40;;;7.20;99.90;;;;;;12471034;28;20125;-40
2022/01/04 06:39:27;;;;;;;27.90;17.00;;;7.20;99.90;;;;;;12477880;28;20167;-39
2022/01/04 06:45:29;;;;;;;27.10;16.10;;;7.30;99.90;;;;;;12479601;28;21020;-39
2022/01/04 06:51:31;;;;;;;27.40;16.73;;;7.20;99.90;;;;;;12475222;28;20064;-39
2022/01/04 06:57:33;;;;;;;25.88;16.73;;;7.20;99.90;;;;;;12475233;28;20095;-36
2022/01/04 07:03:35;;;;;;;25.85;16.85;;;7.20;99.90;;;;;;12457683;28;20057;-37
2022/01/04 07:09:37;;;;;;;28.35;17.13;;;7.20;99.90;;;;;;12477451;28;20057;-39
2022/01/04 07:15:40;;;;;;;28.08;16.90;;;7.20;99.90;;;;;;12475065;28;20053;-39
2022/01/04 07:21:43;;;;;;;25.95;17.05;;;7.20;99.90;;;;;;12476246;28;20111;-38
2022/01/04 07:27:45;;;;;;;29.17;17.48;;;7.20;99.90;;;;;;12474781;28;20053;-38
2022/01/04 07:33:47;;;;;;;28.15;18.30;;;7.20;99.90;;;;;;12474399;28;20567;-36
2022/01/04 07:39:50;;;;;;;31.77;18.40;;;7.20;99.90;;;;;;12477715;28;20152;-39
2022/01/04 07:45:52;;;;;;;35.08;19.13;;;7.20;99.90;;;;;;12473197;28;20094;-37
2022/01/04 07:51:55;;;;;;;31.02;18.27;;;7.20;99.90;;;;;;12456138;28;20050;-37
2022/01/04 07:57:57;;;;;;;30.48;18.88;;;7.20;99.90;;;;;;12476090;28;20088;-39
2022/01/04 08:04:04;;;;;;;34.92;20.00;;;7.20;99.90;;;;;;12468922;28;20056;-38
2022/01/04 08:10:07;;;;;;;34.05;19.45;;;7.10;99.90;;;;;;12470974;28;20053;-39
2022/01/04 08:16:09;;;;;;;33.97;20.27;;;7.20;99.90;;;;;;12460510;28;20503;-39
2022/01/04 08:22:11;;;;;;;36.55;19.55;;;7.10;99.90;;;;;;12475009;28;20056;-39
2022/01/04 08:28:13;;;;;;;36.75;20.65;;;7.10;99.90;;;;;;12475302;28;20045;-38
2022/01/04 08:34:16;;;;;;;39.90;22.00;;;7.20;99.90;;;;;;12475433;28;20099;-37
2022/01/04 08:40:18;;;;;;;35.53;20.65;;;7.20;99.90;;;;;;12475134;28;20057;-37
2022/01/04 08:46:22;;;;;;;36.90;21.45;;;7.20;99.90;;;;;;12457313;28;20148;-37
2022/01/04 08:52:27;;;;;;;35.25;20.48;;;7.20;99.90;;;;;;12473152;28;20053;-39
2022/01/04 08:58:34;;;;;;;40.17;21.60;;;7.20;99.90;;;;;;12475349;28;20133;-37
2022/01/04 09:04:36;;;;;;;35.80;19.80;;;7.10;99.90;;;;;;12471925;28;20061;-39
2022/01/04 09:10:39;;;;;;;40.70;21.10;;;7.20;99.90;;;;;;12473374;28;20167;-37
2022/01/04 09:23:04;;;;;;;36.78;19.80;;;7.20;99.90;;;;;;12473802;28;20048;-40
2022/01/04 09:29:07;;;;;;;32.63;18.83;;;7.30;99.90;;;;;;12473662;28;20049;-37
2022/01/04 09:35:11;;;;;;;39.78;19.38;;;7.30;99.90;;;;;;12473332;28;20128;-39
2022/01/04 09:41:13;;;;;;;31.15;18.77;;;7.30;99.90;;;;;;12470524;28;20045;-36
2022/01/04 09:47:16;;;;;;;32.17;18.92;;;7.30;99.90;;;;;;12452540;28;20148;-37
2022/01/04 09:53:21;;;;;;;33.47;19.23;;;7.30;99.90;;;;;;12472509;28;20083;-37
2022/01/04 09:59:23;;;;;;;33.10;20.08;;;7.30;99.90;;;;;;12474464;28;20038;-39
2022/01/04 10:05:27;;;;;;;34.58;20.80;;;7.40;99.90;;;;;;12454923;28;20041;-39
2022/01/04 10:11:32;;;;;;;31.75;20.27;;;7.30;99.90;;;;;;12479325;28;20063;-37
2022/01/04 10:17:35;;;;;;;34.65;21.00;;;7.40;99.90;;;;;;12483294;28;20069;-37
2022/01/04 10:23:56;;;;;;;36.40;20.23;;;7.40;99.90;;;;;;12466053;28;20095;-39
2022/01/04 10:30:11;;;;;;;29.20;18.67;;;7.40;99.90;;;;;;12484128;28;20108;-37
2022/01/04 10:36:16;;;;;;;29.38;18.63;;;7.50;99.90;;;;;;12485922;28;20053;-39
2022/01/04 10:42:22;;;;;;;31.90;17.23;;;7.60;99.90;;;;;;12481801;28;20057;-37
2022/01/04 10:48:27;;;;;;;30.02;18.25;;;7.60;99.90;;;;;;12482433;28;21045;-40
2022/01/04 10:54:32;;;;;;;25.80;16.13;;;7.60;99.90;;;;;;12481737;28;20128;-39
2022/01/04 11:00:35;;;;;;;25.58;16.13;;;7.50;99.90;;;;;;12466426;28;20054;-39
2022/01/04 11:06:43;;;;;;;25.52;16.38;;;7.60;99.90;;;;;;12484589;28;20052;-37
2022/01/04 11:12:45;;;;;;;27.38;16.88;;;7.60;99.90;;;;;;12480075;28;20111;-37
2022/01/04 11:18:50;;;;;;;27.88;18.08;;;7.60;99.90;;;;;;12480955;28;20045;-37
2022/01/04 11:24:53;;;;;;;29.95;19.90;;;7.60;99.90;;;;;;12478881;28;20095;-39
2022/01/04 11:31:33;;;;;;;28.67;19.67;;;7.60;99.90;;;;;;12481523;28;20132;-39
2022/01/04 11:37:38;;;;;;;27.90;19.60;;;7.70;99.90;;;;;;12480560;28;20054;-37
2022/01/04 11:43:40;;;;;;;27.35;18.98;;;7.70;99.90;;;;;;12481898;28;20817;-39
2022/01/04 11:50:13;;;;;;;28.27;19.67;;;7.70;99.90;;;;;;12447224;28;20092;-37
2022/01/04 11:56:17;;;;;;;27.13;17.73;;;7.60;99.90;;;;;;12481562;28;20045;-37
2022/01/04 12:02:32;;;;;;;26.25;16.73;;;7.60;99.90;;;;;;12476838;28;20068;-39
2022/01/04 12:08:48;;;;;;;22.00;16.35;;;7.70;99.90;;;;;;12463520;28;20041;-39
2022/01/04 12:14:51;;;;;;;22.63;15.98;;;7.60;99.90;;;;;;12477266;28;20049;-39
2022/01/04 12:20:55;;;;;;;23.08;15.85;;;7.60;99.90;;;;;;12477146;28;20517;-37
2022/01/04 12:27:08;;;;;;;24.25;16.48;;;7.60;99.90;;;;;;12474161;28;20160;-37
2022/01/04 12:33:35;;;;;;;21.90;15.68;;;7.60;99.90;;;;;;12474607;28;20396;-39
2022/01/04 12:39:40;;;;;;;25.60;16.45;;;7.60;99.90;;;;;;12477327;28;20053;-36
2022/01/04 12:45:43;;;;;;;27.90;16.42;;;7.50;99.90;;;;;;12476405;28;20052;-39
2022/01/04 12:51:53;;;;;;;24.37;15.97;;;7.60;99.90;;;;;;12481469;28;20050;-36
2022/01/04 12:57:56;;;;;;;23.08;15.35;;;7.60;99.90;;;;;;12476919;28;20745;-37
2022/01/04 13:04:00;;;;;;;21.88;15.10;;;7.60;99.90;;;;;;12471323;28;20045;-39
2022/01/04 13:10:14;;;;;;;23.40;16.50;;;7.60;99.90;;;;;;12473556;28;20046;-39
2022/01/04 13:16:26;;;;;;;23.83;16.35;;;7.50;99.90;;;;;;12477038;28;20053;-39
2022/01/04 13:22:29;;;;;;;25.10;16.25;;;7.50;99.90;;;;;;12476575;28;20078;-39
2022/01/04 13:28:33;;;;;;;20.98;14.40;;;7.50;99.90;;;;;;12474833;28;20099;-39
2022/01/04 13:34:35;;;;;;;19.83;13.93;;;7.50;99.90;;;;;;12472694;28;20140;-38
2022/01/04 13:40:39;;;;;;;18.65;11.02;;;7.60;99.90;;;;;;12472296;28;20053;-38
2022/01/04 13:46:41;;;;;;;19.83;12.50;;;7.70;99.90;;;;;;12481147;28;20191;-39
2022/01/04 13:53:20;;;;;;;17.30;12.25;;;7.60;99.90;;;;;;12485173;28;20080;-37
2022/01/04 13:59:22;;;;;;;19.92;11.38;;;7.60;99.90;;;;;;12455700;28;20053;-39
2022/01/04 14:05:25;;;;;;;16.23;11.20;;;7.60;99.90;;;;;;12466514;28;20073;-37
2022/01/04 14:11:33;;;;;;;14.27;9.40;;;7.70;99.90;;;;;;12469098;28;20468;-38
2022/01/04 14:17:37;;;;;;;12.93;8.27;;;7.70;99.90;;;;;;12467928;28;20077;-41
2022/01/04 14:23:40;;;;;;;15.33;7.93;;;7.70;99.90;;;;;;12466668;28;20141;-37
2022/01/04 14:29:45;;;;;;;19.70;7.88;;;7.70;99.90;;;;;;12468729;28;20108;-37
2022/01/04 14:35:46;;;;;;;;;;;7.70;99.90;;;;;;12469721;28;20390;-37
2022/01/04 14:41:48;;;;;;;1.70;0.73;;;6.10;99.90;;;;;;12481839;28;19964;-36
2022/01/04 14:47:50;;;;;;;1.40;0.63;;;5.80;99.90;;;;;;12479527;28;20106;-37
2022/01/04 14:53:53;;;;;;;1.52;0.55;;;5.70;99.90;;;;;;12477822;28;20057;-38
2022/01/04 14:59:56;;;;;;;3.40;1.00;;;5.60;99.90;;;;;;12474619;28;20418;-39
2022/01/04 15:05:58;;;;;;;3.70;1.08;;;5.70;99.90;;;;;;12462369;28;20506;-38
2022/01/04 15:12:01;;;;;;;2.17;0.90;;;5.70;99.90;;;;;;12460201;28;20049;-40
2022/01/04 15:18:04;;;;;;;2.53;1.40;;;5.60;99.90;;;;;;12480682;28;20053;-39
2022/01/04 15:24:07;;;;;;;4.40;1.48;;;5.60;99.90;;;;;;12478304;28;20137;-38
2022/01/04 15:30:10;;;;;;;4.18;1.45;;;5.60;99.90;;;;;;12477845;28;20140;-40
2022/01/04 15:36:12;;;;;;;3.80;1.35;;;5.70;99.90;;;;;;12477578;28;20136;-37
2022/01/04 15:42:15;;;;;;;6.05;1.85;;;5.70;99.90;;;;;;12477895;28;20545;-38
2022/01/04 15:48:17;;;;;;;4.70;1.50;;;5.70;99.90;;;;;;12477397;28;20099;-37
2022/01/04 15:54:20;;;;;;;6.80;2.00;;;5.60;99.90;;;;;;12478076;28;20588;-36
2022/01/04 16:00:22;;;;;;;3.90;2.00;;;5.70;99.90;;;;;;12477783;28;20053;-36
2022/01/04 16:06:25;;;;;;;5.63;2.15;;;5.60;99.90;;;;;;12476694;28;20120;-37
2022/01/04 16:12:28;;;;;;;5.63;2.45;;;5.70;99.90;;;;;;12459488;28;20245;-38
2022/01/04 16:24:36;;;;;;;4.45;2.80;;;5.80;99.90;;;;;;12475443;28;20144;-37
2022/01/04 16:30:38;;;;;;;6.30;3.53;;;5.80;99.90;;;;;;12462285;28;20096;-40
2022/01/04 16:36:41;;;;;;;5.05;2.90;;;5.80;99.90;;;;;;12466549;28;20053;-37
2022/01/04 16:42:44;;;;;;;6.15;3.33;;;5.80;99.90;;;;;;12472577;28;20041;-37
2022/01/04 16:48:46;;;;;;;7.15;3.55;;;5.80;99.90;;;;;;12474812;28;20053;-39
2022/01/04 16:54:48;;;;;;;6.50;3.30;;;5.80;99.90;;;;;;12472140;28;20108;-39
2022/01/04 17:00:50;;;;;;;5.20;3.28;;;5.80;99.90;;;;;;12472885;28;20057;-39
2022/01/04 17:06:54;;;;;;;5.13;2.92;;;5.80;99.90;;;;;;12459752;28;20490;-38
2022/01/04 17:15:33;;;;;;;5.32;3.30;;;5.70;99.90;;;;;;12473578;28;20045;-39
2022/01/04 17:19:19;;;;;;;7.68;3.92;;;5.60;99.90;;;;;;12474837;28;20122;-38
2022/01/04 17:25:22;;;;;;;10.10;4.18;;;5.50;99.90;;;;;;12475903;28;20746;-38
2022/01/04 17:31:24;;;;;;;6.03;4.00;;;5.40;99.90;;;;;;12472764;28;20142;-36
2022/01/04 17:37:26;;;;;;;5.97;3.50;;;5.30;99.90;;;;;;12474231;28;20053;-38
2022/01/04 17:43:50;;;;;;;5.18;2.60;;;5.20;99.90;;;;;;12470435;28;20048;-38
2022/01/04 17:49:52;;;;;;;5.18;2.30;;;5.10;99.90;;;;;;12470243;28;20082;-38
2022/01/04 17:55:55;;;;;;;5.13;2.40;;;5.20;99.90;;;;;;12457800;28;20057;-38
2022/01/04 18:01:59;;;;;;;5.78;2.08;;;5.10;99.90;;;;;;12457696;28;20073;-37
2022/01/04 18:08:03;;;;;;;3.20;1.40;;;5.00;99.90;;;;;;12457491;28;20046;-39
2022/01/04 18:14:05;;;;;;;4.53;1.30;;;5.00;99.90;;;;;;12454071;28;20050;-37
2022/01/04 18:20:08;;;;;;;3.42;1.35;;;5.00;99.90;;;;;;12457648;28;20136;-39
2022/01/04 18:26:14;;;;;;;6.13;1.20;;;4.90;99.90;;;;;;12458239;28;20046;-39
2022/01/04 18:32:16;;;;;;;6.30;1.40;;;4.80;99.90;;;;;;12458044;28;20125;-38
2022/01/04 18:38:18;;;;;;;4.65;1.38;;;4.80;99.90;;;;;;12468654;28;20054;-39
2022/01/04 18:44:20;;;;;;;3.35;1.15;;;4.60;99.90;;;;;;12466254;28;20102;-39
2022/01/04 18:50:22;;;;;;;2.67;1.02;;;4.60;99.90;;;;;;12468402;28;20053;-36
2022/01/04 18:56:24;;;;;;;7.45;1.25;;;4.40;99.90;;;;;;12476585;28;20076;-38
2022/01/04 19:02:26;;;;;;;7.45;1.70;;;4.40;99.90;;;;;;12476860;28;20077;-37
2022/01/04 19:08:29;;;;;;;4.55;2.15;;;4.50;99.90;;;;;;12480413;28;20045;-37
2022/01/04 19:14:31;;;;;;;4.50;1.60;;;4.50;99.90;;;;;;12478288;28;20050;-37
2022/01/04 19:20:34;;;;;;;7.40;1.73;;;4.50;99.90;;;;;;12477174;28;20634;-37
2022/01/04 19:26:36;;;;;;;5.60;1.70;;;4.40;99.90;;;;;;12475174;28;20053;-38
2022/01/04 19:38:56;;;;;;;9.45;2.10;;;4.30;99.90;;;;;;12478806;28;20136;-38
2022/01/04 19:44:58;;;;;;;4.68;1.80;;;4.40;99.90;;;;;;12474809;28;20128;-36
2022/01/04 19:51:01;;;;;;;5.90;2.10;;;4.40;99.90;;;;;;12476037;28;20037;-37
2022/01/04 19:57:03;;;;;;;4.38;1.85;;;4.30;99.90;;;;;;12474693;28;20106;-38
2022/01/04 20:03:05;;;;;;;7.55;2.33;;;4.20;99.90;;;;;;12474399;28;20045;-36
2022/01/04 20:09:07;;;;;;;9.35;2.75;;;4.10;99.90;;;;;;12477518;28;20056;-36
2022/01/04 20:15:10;;;;;;;7.07;1.98;;;4.10;99.90;;;;;;12473144;28;20713;-40
2022/01/04 20:21:15;;;;;;;7.55;2.03;;;4.10;99.90;;;;;;12473445;28;20049;-36
2022/01/04 20:27:16;;;;;;;11.18;2.28;;;4.10;99.90;;;;;;12474910;28;20049;-36
2022/01/04 20:33:20;;;;;;;6.20;1.90;;;4.20;99.90;;;;;;12473710;28;20491;-37
2022/01/04 20:39:22;;;;;;;6.28;1.90;;;4.20;99.90;;;;;;12475999;28;20049;-39
2022/01/04 20:45:24;;;;;;;5.50;1.63;;;4.10;99.90;;;;;;12473200;28;20084;-36
2022/01/04 20:51:26;;;;;;;7.13;2.10;;;4.10;99.90;;;;;;12471526;28;20903;-38
2022/01/04 20:57:28;;;;;;;10.27;3.20;;;4.20;99.90;;;;;;12473041;28;20061;-39
2022/01/04 21:03:31;;;;;;;6.90;1.92;;;4.10;99.90;;;;;;12474222;28;20068;-38
2022/01/04 21:09:34;;;;;;;9.93;2.08;;;4.20;99.90;;;;;;12455704;28;20102;-36
2022/01/04 21:15:36;;;;;;;7.75;1.67;;;4.20;99.90;;;;;;12472269;28;20084;-36
2022/01/04 21:21:38;;;;;;;9.52;1.70;;;4.20;99.90;;;;;;12473495;28;20064;-38
2022/01/04 21:27:40;;;;;;;10.68;1.80;;;4.20;99.90;;;;;;12473185;28;20122;-36
2022/01/04 21:33:43;;;;;;;9.63;2.53;;;4.20;99.90;;;;;;12472701;28;20050;-37
2022/01/04 21:39:45;;;;;;;7.28;1.55;;;4.20;99.90;;;;;;12473361;28;20111;-39
2022/01/04 21:45:47;;;;;;;7.10;1.80;;;4.20;99.90;;;;;;12473792;28;20045;-39
2022/01/04 21:51:50;;;;;;;10.48;1.88;;;4.20;99.90;;;;;;12471217;28;20056;-39
2022/01/04 21:57:52;;;;;;;6.15;1.75;;;4.20;99.90;;;;;;12472479;28;20045;-38
2022/01/04 22:03:54;;;;;;;7.35;1.92;;;4.10;99.90;;;;;;12470658;28;20038;-38
2022/01/04 22:09:56;;;;;;;9.95;1.73;;;4.10;99.90;;;;;;12482016;28;20052;-37
2022/01/04 22:15:59;;;;;;;8.35;1.77;;;4.10;99.90;;;;;;12479793;28;20485;-37
2022/01/04 22:22:02;;;;;;;10.13;1.70;;;4.20;99.90;;;;;;12479123;28;20052;-39
2022/01/04 22:28:04;;;;;;;12.07;2.50;;;4.10;99.90;;;;;;12479028;28;20124;-36
2022/01/04 22:34:06;;;;;;;10.82;1.77;;;4.10;99.90;;;;;;12478468;28;20053;-40
2022/01/04 22:40:08;;;;;;;12.88;2.38;;;4.00;99.90;;;;;;12476983;28;20050;-39
2022/01/04 22:46:10;;;;;;;9.88;1.83;;;4.10;99.90;;;;;;12476353;28;20060;-40
2022/01/04 22:52:12;;;;;;;10.35;1.80;;;4.10;99.90;;;;;;12478600;28;20588;-36
2022/01/04 22:58:14;;;;;;;8.10;1.67;;;4.20;99.90;;;;;;12477548;28;20486;-39
2022/01/04 23:04:18;;;;;;;7.80;1.92;;;4.10;99.90;;;;;;12476831;28;20049;-36
2022/01/04 23:10:22;;;;;;;11.53;2.50;;;4.20;99.90;;;;;;12476204;28;20115;-36
2022/01/04 23:16:24;;;;;;;11.27;1.60;;;4.20;99.90;;;;;;12477414;28;20111;-39
2022/01/04 23:22:26;;;;;;;8.43;2.03;;;4.20;99.90;;;;;;12476782;28;20045;-37
2022/01/04 23:28:28;;;;;;;9.40;2.40;;;4.20;99.90;;;;;;12478081;28;20133;-37
2022/01/04 23:34:30;;;;;;;8.07;2.28;;;4.10;99.90;;;;;;12476428;28;20726;-37
2022/01/04 23:40:34;;;;;;;15.70;2.47;;;4.20;99.90;;;;;;12476133;28;20064;-37
2022/01/04 23:46:35;;;;;;;12.10;2.70;;;4.20;99.90;;;;;;12459182;28;20053;-39
2022/01/04 23:52:39;;;;;;;11.30;2.42;;;4.20;99.90;;;;;;12475178;28;20053;-38
2022/01/04 23:58:41;;;;;;;10.63;2.08;;;4.10;99.90;;;;;;12475468;28;20049;-38
